Terminal Aerodrome Forecast
Issued by NWS

Home | Current Version | Previous Version | Graphics & Text | Print | Product List | Glossary On
Versions: 1 2 3 4 5 6 7 8 9 10 11 12 13 14 15 16 17 18 19 20 21 22 23 24 25 26 27 28 29 30 31 32 33 34 35 36 37 38 39
000
FTUS43 KGRB 300300 AAA
TAFRHI
TAF AMD
KRHI 300323Z 3003/3024 32013G22KT P6SM -SN SCT020 OVC035
      TEMPO 3003/3007 4SM -SHSN BKN025
     FM300700 34010G17KT P6SM -SN BKN020
     FM301200 31003KT P6SM SCT016 BKN150
     FM302000 24005KT P6SM SCT200=

USA.gov is the U.S. government's official web portal to all federal, state and local government web resources and services.